Time;durP1;ratioP1;P1;durP2;ratioP2;P2;SDS_P1;SDS_P2;PMS_P1;PMS_P2;Temp;Humidity;BMP_temperature;BMP_pressure;BME280_temperature;BME280_humidity;BME280_pressure;Samples;Min_cycle;Max_cycle;Signal;HPM_P1;HPM_P2
2023/05/26 00:01:46;;;;;;;33.20;19.95;;;;;;;28.38;42.45;99102.91;5032647;28;20041;-68
2023/05/26 00:04:16;;;;;;;29.67;20.33;;;;;;;28.46;42.59;99086.72;5015454;28;20072;-68
2023/05/26 00:06:44;;;;;;;31.48;19.05;;;;;;;28.43;41.78;99103.69;5031796;28;20475;-69
2023/05/26 00:09:10;;;;;;;38.80;20.45;;;;;;;28.16;41.97;99103.38;5031959;28;20438;-69
2023/05/26 00:11:36;;;;;;;29.27;19.50;;;;;;;28.10;42.45;99101.78;5031770;28;20056;-69
2023/05/26 00:14:01;;;;;;;30.33;18.75;;;;;;;27.94;42.54;99098.34;5032694;28;20056;-69
2023/05/26 00:16:27;;;;;;;27.17;18.70;;;;;;;28.01;43.05;99103.50;5032136;28;20056;-69
2023/05/26 00:18:53;;;;;;;31.58;19.67;;;;;;;27.88;43.64;99098.66;4998866;28;20049;-69
2023/05/26 00:21:19;;;;;;;29.25;18.73;;;;;;;27.93;42.88;99093.16;4994468;28;20060;-69
2023/05/26 00:23:45;;;;;;;26.52;19.20;;;;;;;28.00;43.29;99110.84;5010915;28;20046;-69
2023/05/26 00:26:10;;;;;;;31.05;19.15;;;;;;;28.18;42.56;99109.38;5011189;28;20061;-69
2023/05/26 00:28:39;;;;;;;29.48;18.02;;;;;;;28.26;41.81;99106.03;4978529;28;20045;-69
2023/05/26 00:31:05;;;;;;;33.20;19.80;;;;;;;27.95;41.92;99101.91;4994459;28;20042;-69
2023/05/26 00:33:31;;;;;;;24.52;15.05;;;;;;;27.57;41.82;99097.19;4978343;28;20057;-69
2023/05/26 00:35:57;;;;;;;22.67;15.30;;;;;;;27.54;42.39;99112.19;4978296;28;20046;-69
2023/05/26 00:38:22;;;;;;;29.50;17.95;;;;;;;27.46;43.15;99109.25;4994357;28;20068;-69
2023/05/26 00:40:49;;;;;;;26.50;19.60;;;;;;;27.43;43.27;99096.16;4962025;28;20450;-69
2023/05/26 00:43:15;;;;;;;25.52;21.67;;;;;;;27.28;43.60;99109.84;4962357;28;20084;-70
2023/05/26 00:45:40;;;;;;;27.55;19.50;;;;;;;27.24;44.24;99106.03;4994844;28;20066;-68
2023/05/26 00:48:06;;;;;;;27.35;17.77;;;;;;;27.30;43.54;99113.94;4994111;28;20148;-69
2023/05/26 00:50:33;;;;;;;34.70;20.98;;;;;;;27.31;44.39;99104.66;4962032;28;20041;-69
2023/05/26 00:53:00;;;;;;;27.95;20.38;;;;;;;27.52;44.30;99105.38;5022796;28;20450;-69
2023/05/26 00:55:26;;;;;;;31.73;21.20;;;;;;;27.27;44.24;99111.78;5030731;28;20056;-69
2023/05/26 00:57:52;;;;;;;30.38;20.33;;;;;;;27.05;44.86;99105.81;5014714;28;20470;-69
2023/05/26 01:00:18;;;;;;;30.83;20.77;;;;;;;27.03;45.33;99104.47;5030990;28;20037;-69
2023/05/26 01:02:45;;;;;;;28.08;20.48;;;;;;;27.26;45.35;99106.59;5014821;28;20087;-68
2023/05/26 01:05:10;;;;;;;25.35;18.25;;;;;;;27.29;44.71;99109.56;5032091;28;20056;-69
2023/05/26 01:07:36;;;;;;;23.05;17.48;;;;;;;27.32;44.22;99102.75;5014328;28;20107;-69
2023/05/26 01:10:03;;;;;;;25.65;16.60;;;;;;;27.53;43.70;99113.28;4998162;28;20140;-69
2023/05/26 01:12:45;;;;;;;23.52;15.57;;;;;;;27.53;43.28;99118.75;5014479;28;20061;-70
2023/05/26 01:15:13;;;;;;;22.83;15.93;;;;;;;27.92;42.47;99116.09;5031057;28;20056;-70
2023/05/26 01:17:52;;;;;;;24.15;15.30;;;;;;;28.12;41.95;99115.97;5030989;28;20128;-69
2023/05/26 01:20:27;;;;;;;23.23;15.90;;;;;;;28.16;42.01;99114.28;5030907;28;20053;-69
2023/05/26 01:23:20;;;;;;;22.02;15.35;;;;;;;28.35;41.23;99111.69;5030547;28;20049;-69
2023/05/26 01:26:10;;;;;;;23.45;14.90;;;;;;;28.39;40.91;99110.81;5030653;28;20052;-69
2023/05/26 01:28:38;;;;;;;23.88;15.00;;;;;;;28.26;40.88;99103.31;5031724;28;20826;-69
2023/05/26 01:31:04;;;;;;;22.83;14.52;;;;;;;28.07;40.79;99109.72;5014288;28;20049;-68
2023/05/26 01:33:30;;;;;;;19.98;14.48;;;;;;;28.12;40.37;99107.78;4997744;28;20114;-69
2023/05/26 01:35:56;;;;;;;24.40;14.90;;;;;;;28.13;39.99;99120.31;5030366;28;20493;-69
2023/05/26 01:38:22;;;;;;;22.92;14.63;;;;;;;28.20;40.27;99118.06;5031715;28;20038;-69
2023/05/26 01:40:54;;;;;;;23.98;14.90;;;;;;;28.49;40.11;99118.16;5030534;28;20046;-69
2023/05/26 01:43:30;;;;;;;20.77;13.95;;;;;;;28.14;39.61;99112.97;5030553;28;20038;-69
2023/05/26 01:46:38;;;;;;;22.85;14.10;;;;;;;28.64;39.44;99113.38;5030282;28;20045;-69
2023/05/26 01:49:08;;;;;;;22.35;14.57;;;;;;;28.46;39.75;99102.31;4951323;29;20047;-70
2023/05/26 01:51:35;;;;;;;18.80;14.68;;;;;;;28.31;39.90;99108.69;4919856;29;20059;-70
2023/05/26 01:54:02;;;;;;;23.50;13.77;;;;;;;28.49;39.33;99121.72;4935581;29;20496;-70
2023/05/26 01:56:34;;;;;;;18.70;14.18;;;;;;;28.53;39.36;99125.50;4954769;28;20081;-70
2023/05/26 01:59:01;;;;;;;20.05;14.95;;;;;;;28.21;39.71;99124.38;5014016;28;20052;-70
2023/05/26 02:01:27;;;;;;;23.63;14.32;;;;;;;28.00;39.38;99126.41;5030747;28;20042;-70
2023/05/26 02:03:54;;;;;;;20.05;13.25;;;;;;;27.88;39.85;99125.94;5031941;28;20489;-68
2023/05/26 02:06:21;;;;;;;16.00;12.70;;;;;;;27.77;39.68;99125.16;5031237;28;20045;-69
2023/05/26 02:08:47;;;;;;;21.95;13.10;;;;;;;27.81;39.74;99123.53;5033905;28;20123;-69
2023/05/26 02:11:13;;;;;;;21.08;14.00;;;;;;;27.74;39.82;99123.00;5035025;28;20061;-68
2023/05/26 02:13:39;;;;;;;21.15;14.45;;;;;;;27.74;39.72;99127.63;5033654;28;20045;-69
2023/05/26 02:16:05;;;;;;;24.23;14.60;;;;;;;27.75;39.56;99123.81;5001352;28;20136;-68
2023/05/26 02:18:35;;;;;;;23.63;14.40;;;;;;;27.81;39.40;99128.16;5035386;28;20135;-69
2023/05/26 02:21:01;;;;;;;15.80;12.68;;;;;;;27.83;39.42;99126.75;5033979;28;20037;-68
2023/05/26 02:23:27;;;;;;;19.10;14.10;;;;;;;27.76;39.31;99123.53;5017239;28;20136;-68
2023/05/26 02:25:53;;;;;;;18.83;13.70;;;;;;;27.83;39.36;99129.50;5033808;28;20051;-69
2023/05/26 02:28:18;;;;;;;18.85;13.07;;;;;;;27.85;39.19;99138.22;5033965;28;20053;-69
2023/05/26 02:30:44;;;;;;;21.05;13.52;;;;;;;27.88;39.05;99145.06;5033609;28;20041;-69
2023/05/26 02:33:10;;;;;;;20.63;14.20;;;;;;;27.85;39.07;99134.66;5034411;28;20045;-69
2023/05/26 02:35:36;;;;;;;21.17;13.38;;;;;;;27.90;38.81;99138.22;5017479;28;20045;-69
2023/05/26 02:38:02;;;;;;;17.00;14.07;;;;;;;27.84;38.89;99139.34;5017080;28;20056;-69
2023/05/26 02:40:28;;;;;;;19.42;12.75;;;;;;;27.98;38.70;99145.00;5034281;28;20136;-69
2023/05/26 02:42:53;;;;;;;19.65;13.23;;;;;;;27.88;39.17;99143.16;5033359;28;20084;-70
2023/05/26 02:45:20;;;;;;;17.05;12.93;;;;;;;27.93;38.91;99147.75;5034386;28;20041;-69
2023/05/26 02:47:45;;;;;;;20.25;13.68;;;;;;;28.01;38.61;99138.97;5034414;28;20115;-69
2023/05/26 02:50:11;;;;;;;22.98;13.40;;;;;;;28.13;38.49;99147.63;5033204;28;20049;-69
2023/05/26 02:52:37;;;;;;;20.48;13.43;;;;;;;27.94;38.26;99141.19;5034107;28;20128;-71
2023/05/26 02:55:04;;;;;;;17.60;13.52;;;;;;;27.90;38.88;99130.03;5032980;28;20068;-70
2023/05/26 02:57:29;;;;;;;19.90;14.18;;;;;;;27.70;38.86;99129.31;5034015;28;20471;-72
2023/05/26 02:59:56;;;;;;;22.23;14.68;;;;;;;27.67;38.85;99138.06;5016706;28;20411;-70
2023/05/26 03:02:22;;;;;;;21.20;13.95;;;;;;;27.87;38.45;99147.00;5016294;28;20049;-66
2023/05/26 03:04:48;;;;;;;23.85;15.07;;;;;;;27.90;38.24;99134.69;5000280;28;20049;-73
2023/05/26 03:07:13;;;;;;;21.13;14.75;;;;;;;27.76;38.52;99139.91;5032768;28;20052;-70
2023/05/26 03:09:39;;;;;;;21.73;15.18;;;;;;;27.68;38.75;99136.94;5032682;28;20037;-71
2023/05/26 03:12:06;;;;;;;19.58;14.90;;;;;;;27.49;39.02;99144.16;5032632;28;20445;-70
2023/05/26 03:14:33;;;;;;;20.38;15.57;;;;;;;27.40;39.17;99148.53;5015971;28;20682;-73
2023/05/26 03:17:00;;;;;;;22.60;15.07;;;;;;;27.37;39.38;99146.38;4999867;28;20471;-72
2023/05/26 03:19:26;;;;;;;20.60;14.75;;;;;;;27.30;39.70;99151.28;5032240;28;20045;-74
2023/05/26 03:21:55;;;;;;;20.33;14.95;;;;;;;27.21;39.73;99144.75;5000304;28;20118;-69
2023/05/26 03:24:21;;;;;;;20.30;14.90;;;;;;;27.27;39.58;99165.50;5032725;28;20049;-73
2023/05/26 03:26:47;;;;;;;25.83;15.00;;;;;;;27.22;39.74;99160.00;4983528;28;20045;-73
2023/05/26 03:29:14;;;;;;;21.58;15.40;;;;;;;27.24;39.90;99157.84;5015952;28;20406;-72
2023/05/26 03:31:40;;;;;;;25.25;14.52;;;;;;;27.22;39.89;99157.28;5032165;28;20046;-70
2023/05/26 03:34:06;;;;;;;32.03;15.23;;;;;;;27.30;39.97;99162.22;5015857;28;20124;-70
2023/05/26 03:36:36;;;;;;;28.35;14.93;;;;;;;27.28;39.94;99161.66;4999447;28;20060;-66
2023/05/26 03:39:14;;;;;;;23.67;14.93;;;;;;;27.43;39.74;99164.34;5018743;28;20131;-71
2023/05/26 03:41:40;;;;;;;22.38;14.75;;;;;;;27.23;40.12;99145.31;5047611;28;20048;-72
2023/05/26 03:44:07;;;;;;;22.73;15.20;;;;;;;27.49;39.66;99165.97;5051556;28;20047;-71
2023/05/26 03:46:36;;;;;;;23.05;14.63;;;;;;;27.36;40.02;99166.53;5048076;28;20041;-70
2023/05/26 03:49:02;;;;;;;22.02;14.10;;;;;;;27.33;40.12;99159.75;5032611;28;20055;-70
2023/05/26 03:51:27;;;;;;;26.73;15.43;;;;;;;27.43;40.31;99162.44;5049199;28;20047;-71
2023/05/26 03:53:53;;;;;;;23.13;15.88;;;;;;;27.42;40.46;99165.44;5032640;28;20048;-69
2023/05/26 03:56:19;;;;;;;26.63;16.95;;;;;;;27.53;41.36;99161.56;5049168;28;20083;-73
2023/05/26 03:58:45;;;;;;;30.70;16.98;;;;;;;27.60;41.46;99162.91;5040632;28;20059;-72
2023/05/26 04:01:11;;;;;;;25.42;16.42;;;;;;;27.77;40.97;99163.38;5052583;28;20044;-73
2023/05/26 04:03:37;;;;;;;22.17;15.35;;;;;;;27.73;40.75;99153.28;5052680;28;20437;-72
2023/05/26 04:06:03;;;;;;;20.40;15.05;;;;;;;27.91;40.54;99160.88;5051514;28;20138;-73
2023/05/26 04:08:30;;;;;;;26.90;16.88;;;;;;;27.99;40.29;99168.47;5050053;28;20068;-73
2023/05/26 04:10:56;;;;;;;24.33;14.95;;;;;;;28.02;40.22;99166.00;5051375;28;20150;-72
2023/05/26 04:13:23;;;;;;;22.15;15.32;;;;;;;28.17;39.89;99167.81;5051973;28;20471;-72
2023/05/26 04:15:50;;;;;;;24.75;15.68;;;;;;;28.32;39.40;99165.00;5052424;28;20131;-73
2023/05/26 04:18:18;;;;;;;25.13;14.98;;;;;;;28.57;39.11;99156.59;5052605;28;20102;-73
2023/05/26 04:20:43;;;;;;;26.00;15.15;;;;;;;28.49;39.11;99170.06;5035367;28;20334;-72
2023/05/26 04:23:09;;;;;;;23.08;14.52;;;;;;;28.57;38.89;99166.75;5052547;28;20458;-72
2023/05/26 04:25:36;;;;;;;26.20;14.75;;;;;;;28.57;38.70;99164.78;5051283;28;20048;-72
2023/05/26 04:28:24;;;;;;;21.65;14.75;;;;;;;28.72;38.36;99172.91;5028938;28;20052;-73
2023/05/26 04:31:10;;;;;;;23.63;14.30;;;;;;;28.95;37.99;99179.50;5051131;28;20053;-72
2023/05/26 04:33:57;;;;;;;25.50;14.85;;;;;;;29.24;38.06;99180.31;5052399;28;20084;-72
2023/05/26 04:36:42;;;;;;;27.92;14.80;;;;;;;28.96;37.98;99181.94;5037356;28;20037;-72
2023/05/26 04:39:09;;;;;;;18.60;14.18;;;;;;;29.10;37.75;99179.38;5051492;28;20482;-73
2023/05/26 04:41:36;;;;;;;20.60;14.55;;;;;;;29.29;37.83;99192.03;5051904;28;20124;-73
2023/05/26 04:44:02;;;;;;;22.85;15.00;;;;;;;29.12;37.73;99188.91;5035318;28;20661;-73
2023/05/26 04:46:31;;;;;;;24.40;14.82;;;;;;;29.26;37.90;99189.88;5034958;28;20135;-72
2023/05/26 04:48:57;;;;;;;25.50;13.10;;;;;;;29.30;37.75;99196.41;5050854;28;20041;-73
2023/05/26 04:51:24;;;;;;;20.25;14.23;;;;;;;29.38;37.62;99195.75;5051157;28;20102;-72
2023/05/26 04:53:51;;;;;;;20.23;13.18;;;;;;;29.53;36.88;99184.66;5050804;28;20127;-73
2023/05/26 04:56:17;;;;;;;26.75;19.00;;;;;;;29.64;37.02;99196.31;5050805;28;20057;-72
2023/05/26 04:58:50;;;;;;;19.38;13.50;;;;;;;29.67;36.87;99203.13;5050958;28;20044;-72
2023/05/26 05:01:17;;;;;;;16.60;12.02;;;;;;;29.74;36.68;99200.84;5051752;28;20106;-73
2023/05/26 05:03:54;;;;;;;18.85;12.27;;;;;;;29.90;36.38;99199.53;5051792;28;20150;-72
2023/05/26 05:06:28;;;;;;;19.00;11.77;;;;;;;29.82;36.16;99197.44;5052448;28;20041;-72
2023/05/26 05:08:54;;;;;;;15.65;11.15;;;;;;;29.98;35.45;99199.72;5035616;28;20185;-72
2023/05/26 05:11:21;;;;;;;16.75;11.48;;;;;;;30.13;35.36;99206.88;5051088;28;20547;-72
2023/05/26 05:13:47;;;;;;;17.83;11.98;;;;;;;30.11;35.34;99193.47;5046196;28;20045;-73
2023/05/26 05:16:13;;;;;;;18.50;11.10;;;;;;;30.27;35.12;99207.81;4981979;28;20041;-72
2023/05/26 05:18:38;;;;;;;15.18;10.38;;;;;;;30.32;34.82;99210.50;5030643;28;20364;-73
2023/05/26 05:21:05;;;;;;;19.92;10.05;;;;;;;30.41;34.20;99208.69;5014229;28;20056;-73
2023/05/26 05:23:34;;;;;;;12.90;8.63;;;;;;;30.46;33.42;99212.16;5014347;28;20408;-73
2023/05/26 05:26:01;;;;;;;15.40;8.30;;;;;;;30.62;33.35;99213.56;5030438;28;20064;-73
2023/05/26 05:28:29;;;;;;;13.98;8.57;;;;;;;30.79;32.77;99207.56;5014187;28;20045;-72
2023/05/26 05:31:07;;;;;;;13.95;7.95;;;;;;;30.89;32.26;99204.66;5013851;28;20452;-73
2023/05/26 05:33:33;;;;;;;16.38;7.75;;;;;;;31.02;32.01;99207.44;5014012;28;20132;-73
2023/05/26 05:36:21;;;;;;;9.88;6.82;;;;;;;31.46;31.52;99195.91;5014048;28;20095;-73
2023/05/26 05:38:48;;;;;;;10.15;7.45;;;;;;;31.17;31.54;99206.34;5014219;28;20041;-72
2023/05/26 05:41:15;;;;;;;16.67;7.78;;;;;;;31.28;31.46;99210.53;5030993;28;20107;-72
2023/05/26 05:43:41;;;;;;;15.52;7.88;;;;;;;31.41;31.24;99209.78;5034152;28;20038;-73
2023/05/26 05:46:07;;;;;;;9.90;6.20;;;;;;;31.46;30.88;99204.16;5034389;28;20048;-73
2023/05/26 05:48:51;;;;;;;11.88;6.82;;;;;;;31.63;30.33;99207.09;5034009;28;20045;-73
2023/05/26 05:51:24;;;;;;;13.18;6.80;;;;;;;31.58;30.20;99207.22;5018930;28;20038;-72
2023/05/26 05:53:51;;;;;;;11.55;5.68;;;;;;;31.78;29.80;99211.50;5034255;28;20115;-73
2023/05/26 05:56:17;;;;;;;6.93;4.78;;;;;;;31.79;29.95;99205.69;5034495;28;20061;-72
2023/05/26 05:58:44;;;;;;;10.25;5.60;;;;;;;31.89;29.74;99212.94;5001457;28;20037;-72
2023/05/26 06:01:12;;;;;;;9.25;5.38;;;;;;;31.95;29.16;99211.72;5017805;28;20093;-72
2023/05/26 06:03:37;;;;;;;11.32;5.82;;;;;;;32.07;28.88;99214.75;5034951;28;20049;-72
2023/05/26 06:06:05;;;;;;;10.27;5.15;;;;;;;32.20;28.76;99205.63;5001488;28;20076;-72
2023/05/26 06:08:31;;;;;;;9.38;4.63;;;;;;;32.37;27.99;99214.06;5034087;28;20468;-72
2023/05/26 06:10:57;;;;;;;6.88;4.70;;;;;;;32.40;28.33;99210.69;5034154;28;20195;-72
2023/05/26 06:13:24;;;;;;;10.63;5.28;;;;;;;32.44;27.74;99215.25;5017526;28;20111;-72
2023/05/26 06:15:50;;;;;;;6.40;4.60;;;;;;;32.51;27.85;99212.91;5017663;28;20102;-72
2023/05/26 06:18:17;;;;;;;8.50;4.82;;;;;;;32.63;27.62;99204.09;5017557;28;20486;-72
2023/05/26 06:20:43;;;;;;;13.25;4.90;;;;;;;32.78;27.56;99200.16;5001007;28;20068;-72
2023/05/26 06:23:09;;;;;;;5.85;4.47;;;;;;;32.93;27.57;99200.63;5033792;28;20045;-73
2023/05/26 06:25:36;;;;;;;8.43;4.95;;;;;;;32.93;27.71;99199.81;5033856;28;20144;-72
2023/05/26 06:28:04;;;;;;;10.10;4.78;;;;;;;33.10;26.82;99210.91;5016977;28;20467;-72
2023/05/26 06:30:31;;;;;;;8.30;5.40;;;;;;;33.13;27.43;99204.78;5033883;28;20052;-72
2023/05/26 06:33:17;;;;;;;12.13;4.82;;;;;;;33.24;27.19;99209.72;5033344;28;20057;-72
2023/05/26 06:35:43;;;;;;;9.32;5.28;;;;;;;33.31;27.07;99206.47;5016788;28;20037;-72
2023/05/26 06:38:09;;;;;;;10.40;4.68;;;;;;;33.58;26.32;99206.31;5034675;28;20123;-74
2023/05/26 06:40:35;;;;;;;7.40;5.40;;;;;;;33.80;26.47;99215.31;5017479;28;20045;-73
2023/05/26 06:43:02;;;;;;;7.95;4.55;;;;;;;33.91;25.43;99215.84;5033858;28;20124;-74
2023/05/26 06:45:27;;;;;;;7.53;4.75;;;;;;;34.14;25.54;99211.84;5033648;28;20487;-73
2023/05/26 06:47:53;;;;;;;8.00;4.65;;;;;;;34.24;24.72;99217.84;5033481;28;20052;-73
2023/05/26 06:50:23;;;;;;;8.68;4.60;;;;;;;34.43;24.62;99223.09;5017077;28;20038;-73
2023/05/26 06:52:50;;;;;;;7.60;4.90;;;;;;;34.79;24.24;99226.31;5032372;28;20446;-73
2023/05/26 06:55:16;;;;;;;8.10;4.40;;;;;;;34.87;23.61;99227.47;5017039;28;20057;-73
2023/05/26 06:57:42;;;;;;;7.20;4.82;;;;;;;35.00;23.79;99207.97;5033562;28;20498;-73
2023/05/26 07:00:09;;;;;;;11.60;5.30;;;;;;;35.33;23.56;99222.84;5000536;28;20196;-73
2023/05/26 07:02:35;;;;;;;7.50;3.67;;;;;;;35.35;22.90;99217.81;5017140;28;20142;-74
2023/05/26 07:05:21;;;;;;;8.82;4.20;;;;;;;35.69;22.56;99225.13;5033633;28;20053;-73
2023/05/26 07:07:48;;;;;;;6.45;4.35;;;;;;;35.91;22.54;99221.31;5033601;28;20507;-73
2023/05/26 07:10:16;;;;;;;6.82;3.88;;;;;;;36.23;21.94;99226.16;5033583;28;20132;-73
2023/05/26 07:12:42;;;;;;;10.43;3.08;;;;;;;36.81;20.86;99217.78;5032868;28;20468;-73
2023/05/26 07:15:22;;;;;;;;;;;;;;;37.56;19.92;99230.31;5019073;28;20075;-73
2023/05/26 07:17:50;;;;;;;9.10;3.53;;;;;;;37.52;19.50;99212.78;5033182;28;19979;-73
2023/05/26 07:20:16;;;;;;;11.13;4.18;;;;;;;38.14;18.61;99216.03;5000662;28;20060;-74
2023/05/26 07:22:42;;;;;;;7.70;3.92;;;;;;;38.93;18.17;99224.38;5032832;28;20095;-70
2023/05/26 07:25:35;;;;;;;9.52;3.92;;;;;;;40.18;17.21;99225.25;5029527;28;20099;-73
2023/05/26 07:28:03;;;;;;;5.18;3.60;;;;;;;41.36;15.64;99223.41;5016848;28;20084;-74
2023/05/26 07:30:29;;;;;;;13.30;5.18;;;;;;;42.77;15.63;99225.59;5016727;28;20068;-77
2023/05/26 07:33:15;;;;;;;14.02;4.03;;;;;;;44.88;13.81;99224.56;5033092;28;20372;-73
2023/05/26 07:35:42;;;;;;;12.48;3.60;;;;;;;46.74;12.28;99224.56;5000448;28;20041;-74
2023/05/26 07:38:11;;;;;;;4.97;2.90;;;;;;;47.99;10.72;99232.63;5032974;28;20069;-73
2023/05/26 07:40:39;;;;;;;12.93;4.43;;;;;;;49.13;10.22;99229.66;5032855;28;20471;-74
2023/05/26 07:43:10;;;;;;;5.20;3.03;;;;;;;50.81;8.46;99218.66;5000046;28;20041;-74
2023/05/26 07:45:36;;;;;;;7.82;3.72;;;;;;;51.88;8.65;99230.69;5034118;28;20045;-74
2023/05/26 07:48:02;;;;;;;6.60;2.90;;;;;;;52.81;7.54;99222.81;5016301;28;20042;-74
2023/05/26 07:50:30;;;;;;;7.88;2.97;;;;;;;52.80;6.93;99211.91;5016214;28;20041;-74
2023/05/26 07:52:55;;;;;;;5.07;3.20;;;;;;;52.99;6.88;99225.16;5032465;28;20041;-74
2023/05/26 07:55:21;;;;;;;9.90;3.13;;;;;;;53.72;6.87;99212.66;5015873;28;20053;-74
2023/05/26 07:57:47;;;;;;;10.43;2.65;;;;;;;54.30;6.26;99208.94;5033159;28;20072;-74
2023/05/26 08:00:13;;;;;;;4.15;2.45;;;;;;;53.87;6.32;99206.00;5033281;28;20064;-74
2023/05/26 08:02:41;;;;;;;6.57;2.50;;;;;;;54.21;6.27;99199.56;5032035;28;20046;-74
2023/05/26 08:05:07;;;;;;;5.07;2.40;;;;;;;54.55;5.74;99197.47;5032219;28;20056;-74
2023/05/26 08:07:34;;;;;;;9.25;2.30;;;;;;;54.73;5.61;99199.63;5000032;28;20033;-74
2023/05/26 08:10:05;;;;;;;5.32;2.55;;;;;;;55.00;5.56;99188.41;4985313;28;20061;-74
2023/05/26 08:12:31;;;;;;;4.50;2.42;;;;;;;53.27;5.93;99181.69;5015304;28;20057;-74
2023/05/26 08:14:57;;;;;;;9.23;2.60;;;;;;;52.84;6.42;99187.84;5032716;28;20447;-74
2023/05/26 08:17:23;;;;;;;8.68;2.63;;;;;;;53.22;6.08;99191.53;5015446;28;20049;-74
2023/05/26 08:19:49;;;;;;;8.77;2.28;;;;;;;53.88;5.75;99196.22;5031812;28;20136;-74
2023/05/26 08:22:16;;;;;;;4.63;2.60;;;;;;;54.36;5.36;99192.09;5031944;28;20060;-74
2023/05/26 08:24:42;;;;;;;8.85;2.40;;;;;;;55.09;5.12;99184.78;5015141;28;20045;-74
2023/05/26 08:27:08;;;;;;;8.95;2.70;;;;;;;55.48;4.63;99176.28;4983137;28;20041;-74
2023/05/26 08:29:34;;;;;;;5.18;2.13;;;;;;;56.18;4.04;99186.63;5031757;28;20056;-73
2023/05/26 08:32:00;;;;;;;6.18;2.03;;;;;;;56.28;4.17;99177.63;5031461;28;20411;-74
2023/05/26 08:34:26;;;;;;;5.80;2.30;;;;;;;55.83;4.15;99174.75;5031499;28;20052;-73
2023/05/26 08:36:52;;;;;;;5.03;2.40;;;;;;;56.30;3.88;99182.84;5031216;28;20210;-73
2023/05/26 08:39:17;;;;;;;4.45;2.30;;;;;;;56.84;3.72;99184.81;5032423;28;20049;-74
2023/05/26 08:42:03;;;;;;;7.30;2.03;;;;;;;57.46;3.45;99165.81;5032245;28;20041;-74
2023/05/26 08:44:29;;;;;;;4.35;2.10;;;;;;;57.69;3.39;99159.31;5031792;28;20037;-73
2023/05/26 08:46:57;;;;;;;9.68;2.40;;;;;;;58.32;3.30;99170.25;5031332;28;20041;-73
2023/05/26 08:49:23;;;;;;;;;;;;;;;58.96;3.25;99167.50;5015286;28;20387;-73
2023/05/26 08:52:11;;;;;;;6.93;2.20;;;;;;;58.29;2.71;99159.78;5031302;28;20377;-73
2023/05/26 08:54:37;;;;;;;7.35;2.58;;;;;;;58.27;2.74;99165.22;4982494;28;20033;-73
2023/05/26 08:57:07;;;;;;;3.90;2.10;;;;;;;58.30;3.43;99161.34;5032061;28;20063;-73
2023/05/26 08:59:33;;;;;;;3.88;2.00;;;;;;;58.76;2.85;99159.63;5032094;28;20057;-73
2023/05/26 09:02:00;;;;;;;6.65;2.15;;;;;;;59.25;2.42;99158.03;5031639;28;20111;-75
2023/05/26 09:04:28;;;;;;;3.58;2.05;;;;;;;59.69;2.79;99152.94;5031435;28;20048;-73
2023/05/26 09:06:54;;;;;;;4.20;1.90;;;;;;;59.83;2.54;99154.94;5014553;28;20034;-73
2023/05/26 09:09:20;;;;;;;5.60;1.90;;;;;;;59.99;2.96;99146.53;5031103;28;20041;-74
2023/05/26 09:11:46;;;;;;;9.68;2.40;;;;;;;60.16;2.28;99143.91;5030864;28;20479;-74
2023/05/26 09:14:13;;;;;;;7.93;2.20;;;;;;;58.53;2.70;99136.81;5031272;28;20472;-74
2023/05/26 09:16:39;;;;;;;4.95;2.40;;;;;;;57.56;3.31;99125.28;5032213;28;20086;-74
2023/05/26 09:19:07;;;;;;;4.25;2.28;;;;;;;58.11;3.01;99127.69;5031772;28;20037;-75
2023/05/26 09:21:33;;;;;;;7.82;2.30;;;;;;;58.07;3.02;99118.50;5030801;28;20048;-75
2023/05/26 09:24:00;;;;;;;5.82;2.40;;;;;;;56.21;3.82;99103.75;5031469;28;20515;-74
2023/05/26 09:26:31;;;;;;;6.88;2.40;;;;;;;56.74;3.69;99112.69;5030955;28;20045;-75
2023/05/26 09:28:58;;;;;;;9.00;2.40;;;;;;;57.95;3.24;99120.38;5014375;28;20045;-74
2023/05/26 09:31:25;;;;;;;5.97;2.30;;;;;;;58.89;2.60;99110.59;5031003;28;20049;-74
2023/05/26 09:33:52;;;;;;;5.32;2.35;;;;;;;59.57;2.64;99106.16;5014555;28;20128;-74
2023/05/26 09:36:22;;;;;;;8.93;2.70;;;;;;;59.90;2.46;99106.56;5014221;28;20053;-73
2023/05/26 09:38:50;;;;;;;3.97;2.42;;;;;;;59.93;2.51;99119.13;5014217;28;20336;-72
2023/05/26 09:41:20;;;;;;;5.78;2.15;;;;;;;60.41;2.32;99118.06;5014174;28;20067;-73
2023/05/26 09:43:49;;;;;;;7.47;2.10;;;;;;;60.21;2.02;99117.31;4996671;28;20054;-73
2023/05/26 09:46:22;;;;;;;4.43;2.35;;;;;;;60.26;1.97;99111.66;5029478;28;20041;-73
2023/05/26 09:48:51;;;;;;;5.85;2.38;;;;;;;59.77;2.29;99102.47;4995613;28;20487;-73
2023/05/26 09:51:19;;;;;;;5.30;2.17;;;;;;;59.75;2.55;99100.09;5031641;28;20041;-74
2023/05/26 09:53:45;;;;;;;8.40;2.17;;;;;;;60.04;2.39;99107.75;5028463;28;20120;-74
2023/05/26 09:56:11;;;;;;;3.63;2.03;;;;;;;60.21;2.41;99106.63;5031638;28;20206;-74
2023/05/26 09:58:39;;;;;;;5.00;2.50;;;;;;;58.16;2.96;99084.13;5030884;28;20085;-73
2023/05/26 10:01:05;;;;;;;7.53;2.45;;;;;;;55.67;3.87;99080.19;5014400;28;20132;-73
2023/05/26 10:03:31;;;;;;;7.63;2.60;;;;;;;53.58;5.38;99080.38;5031308;28;20144;-74
2023/05/26 10:05:59;;;;;;;5.82;2.72;;;;;;;52.22;5.79;99065.75;5030893;28;20437;-73
2023/05/26 10:08:28;;;;;;;7.82;2.72;;;;;;;50.45;6.40;99055.41;5031311;28;20113;-73
2023/05/26 10:10:55;;;;;;;11.27;2.83;;;;;;;49.12;7.19;99060.03;5030660;28;20468;-70
2023/05/26 10:13:21;;;;;;;8.48;3.53;;;;;;;49.29;7.25;99070.97;5014283;28;20133;-72
2023/05/26 10:15:48;;;;;;;8.82;2.97;;;;;;;51.34;6.53;99071.06;5030446;28;20046;-73
2023/05/26 10:18:14;;;;;;;5.55;3.00;;;;;;;53.08;5.21;99069.94;5031189;28;20037;-76
2023/05/26 10:20:46;;;;;;;5.43;2.67;;;;;;;52.98;5.61;99071.06;5031536;28;20127;-74
2023/05/26 10:23:25;;;;;;;6.22;2.72;;;;;;;53.38;5.13;99069.31;5014127;28;20148;-74
2023/05/26 10:26:04;;;;;;;4.90;2.67;;;;;;;54.48;4.73;99069.69;5030403;28;20048;-72
2023/05/26 10:28:57;;;;;;;13.40;3.03;;;;;;;56.26;3.84;99082.34;5031520;28;20475;-73
2023/05/26 10:31:30;;;;;;;5.55;2.90;;;;;;;57.64;3.26;99083.59;5033934;28;20111;-71
2023/05/26 10:33:58;;;;;;;6.32;2.53;;;;;;;58.46;2.86;99080.78;5033832;28;20057;-71
2023/05/26 10:36:23;;;;;;;4.82;2.53;;;;;;;57.56;3.21;99084.50;5033399;28;20041;-70
2023/05/26 10:38:53;;;;;;;5.93;2.42;;;;;;;56.32;3.38;99059.69;5034559;28;20103;-71
2023/05/26 10:41:33;;;;;;;5.25;2.47;;;;;;;54.11;4.74;99061.41;5034275;28;20103;-70
2023/05/26 10:44:00;;;;;;;9.77;2.67;;;;;;;52.04;5.68;99057.78;5033375;28;20467;-68
2023/05/26 10:46:40;;;;;;;6.57;2.35;;;;;;;51.47;6.02;99046.44;5033393;28;20045;-71
2023/05/26 10:49:22;;;;;;;6.78;2.70;;;;;;;50.00;7.14;99047.91;5033664;28;20045;-67
2023/05/26 10:51:52;;;;;;;5.85;2.90;;;;;;;49.84;6.68;99039.34;5016773;28;20049;-67
2023/05/26 10:54:25;;;;;;;6.07;2.83;;;;;;;48.88;7.90;99047.88;5000294;28;20099;-69
2023/05/26 10:56:52;;;;;;;8.50;2.80;;;;;;;47.49;8.26;99041.63;5034159;28;20041;-69
2023/05/26 10:59:32;;;;;;;7.55;3.10;;;;;;;46.66;8.65;99040.28;5016662;28;20056;-70
2023/05/26 11:02:07;;;;;;;7.95;3.28;;;;;;;47.15;8.64;99037.91;5033216;28;20115;-70
2023/05/26 11:04:45;;;;;;;9.18;3.00;;;;;;;47.56;8.49;99040.75;5032974;28;20045;-68
2023/05/26 11:07:26;;;;;;;7.45;3.20;;;;;;;47.71;7.94;99044.22;5016069;28;20081;-68
2023/05/26 11:10:02;;;;;;;7.45;3.13;;;;;;;47.72;7.67;99037.38;5030887;28;20041;-69
2023/05/26 11:12:51;;;;;;;5.93;2.67;;;;;;;47.47;7.95;99041.22;5031164;28;20053;-68
2023/05/26 11:15:27;;;;;;;6.38;2.80;;;;;;;47.44;8.13;99032.84;4959985;28;20053;-71
2023/05/26 11:17:57;;;;;;;7.95;2.83;;;;;;;47.25;8.65;99045.50;4986806;28;20050;-71
2023/05/26 11:20:24;;;;;;;7.47;3.30;;;;;;;46.10;9.22;99021.72;4992454;28;20108;-68
2023/05/26 11:22:52;;;;;;;7.75;3.00;;;;;;;44.89;10.01;99027.94;4976155;28;20042;-67
2023/05/26 11:25:18;;;;;;;6.68;3.33;;;;;;;44.08;10.51;99026.94;4960541;28;20046;-70
2023/05/26 11:27:47;;;;;;;6.65;3.50;;;;;;;43.68;10.77;99027.94;4976147;28;20061;-68
2023/05/26 11:30:12;;;;;;;7.57;3.80;;;;;;;43.25;11.17;99023.25;4959952;28;20066;-68
2023/05/26 11:32:49;;;;;;;7.53;3.70;;;;;;;42.97;10.91;99011.81;4975657;28;20792;-66
2023/05/26 11:35:25;;;;;;;9.63;3.45;;;;;;;42.77;10.93;99027.22;4976123;28;20068;-69
2023/05/26 11:37:52;;;;;;;11.95;3.28;;;;;;;42.44;11.10;99024.50;4959605;28;20448;-67